Portada
METAR-TAF:

METAR-TAF

Aeroports :

Machala, Equador

latitud: 03-26-07S, longitud: 079-58-40W, altitud: 52 m

Observació

L'informe es va fer fa 1 hora i 0 minuts, a les 13:00 UTC
Vent 3 kt del Est
Temperatura 24°C
Humitat 94%
Pressió 1012 hPa
Visibilitat 10 km o més
Núvols disperses a una alçada de 5000 ft
Cel ennuvolat a una alçada de 7000 ft

METAR: SERO 301300Z 10003KT 9999 SCT050 BKN070 24/23 Q1012

Hora: 09:00 (14:00 UTC)


TAF: manca

Observacions i pronòstics meteorològics de més de 4000 aeroports (METAR i TAF).

Les estacions disponibles són els punts grocs i vermells al mapa.

Posi el ratolí al punt desitjat per veure el nom de l'estació.

Feu clic per veure les observacions i els pronòstics meteorològics.

Per canviar el mapa: feu clic els botons verds amb una creu de color negre per apropar; al botó verd amb un guió per allunyar la imatge; o en les fletxes verdes per a mapes adjacents.


METAR-TAF: